Irvinestown, United Kingdom
Current Conditions -  °F | °C
As of 8:50 PM on Sunday 21 Dec 2014 (Local Time) from EGAE Reporting Station
Light Rain Light Rain  
Wind Chill: 54°   Ceiling: 1700
Heat Index: 54°   Visibility: 6mi
Dew Point: 52°   Wind: 23mph
Humidity: 94%   Direction: 230°SW
Pressure: 29.71"   Gusts: NA
Location:  54.47°N, 7.63°W
Report Text: EGAE 212050Z 23020KT 9000 -RA SCT009 OVC017 12/11 Q1006
Loading
Personal Weather Stations






























Interactive Weather Map New forecast layout! Learn more

10-Day Weather Forecast

Advertisements
Track Severe Weather on mobile